Flight Track Log - Related Links

Times and Time Zones

All times are in EDT time to prevent confusion due to time zone crossing. See the WBR2634 flight status page for this flight to view local times or setup timezone preferences in your user account.

Time Position Orientation Groundspeed Altitude Reporting Facility
EDT Latitude Longitude Course Direction KTS MPH feet Rate Location/Type
Tue 05:56:24 PM 40.8328 -91.1267 75° East 116 133 2,500  Level Chicago Center
Tue 05:57:00 PM 40.8650 -90.7700 57° Northeast  Level FlightAware Approximate
Tue 05:57:26 PM 40.8358 -91.0700 86° East 131 151 3,400  Level Chicago Center
Tue 05:58:00 PM 40.8765 -90.7108 72° East  Level FlightAware Approximate
Tue 05:58:28 PM 40.8525 -91.0228 65° Northeast 136 157 4,200  Level Chicago Center
Tue 05:59:00 PM 40.8987 -90.6568 63° Northeast  Level Estimated
Tue 05:59:30 PM 40.8681 -90.9747 67° East 141 162 5,000  Level Chicago Center
Tue 06:00:00 PM 40.9112 -90.5976 74° East  Level FlightAware Approximate
Tue 06:00:32 PM 40.8842 -90.9225 68° East 149 171 5,700  Level Chicago Center
Tue 06:01:00 PM 40.9235 -90.5384 75° East  Level FlightAware Approximate
Tue 06:01:34 PM 40.9025 -90.8689 66° East 157 181 6,300  Level Chicago Center
Tue 06:02:36 PM 40.9228 -90.8183 62° Northeast 155 178 7,000 677 Climbing Chicago Center
Tue 06:03:38 PM 40.9458 -90.7503 66° East 166 191 7,700 629 Climbing Chicago Center
Tue 06:04:40 PM 40.9639 -90.6931 67° East 169 194 8,300 581 Climbing Chicago Center
Tue 06:05:42 PM 40.9819 -90.6389 66° East 162 186 8,900 339 Climbing Chicago Center
Tue 06:06:44 PM 41.0042 -90.5792 64° Northeast 178 205 9,000 48 Climbing Chicago Center
Tue 06:07:47 PM 41.0264 -90.5156 65° Northeast 189 217 9,000  Level Chicago Center
Tue 06:08:49 PM 41.0475 -90.4481 67° East 197 227 9,000  Level Chicago Center
Tue 06:09:51 PM 41.0703 -90.3822 65° Northeast 197 227 9,000 -48 Level Chicago Center
Tue 06:10:53 PM 41.0975 -90.3008 66° East 200 230 8,900  Descending Chicago Center
Tue 06:11:55 PM 41.1181 -90.2369 67° East 193 222 9,000 48 Climbing Chicago Center
Tue 06:12:57 PM 41.1372 -90.1719 69° East 191 220 9,000  Level Chicago Center
Tue 06:13:59 PM 41.1583 -90.1067 67° East 191 220 9,000  Level Chicago Center
Tue 06:15:01 PM 41.1794 -90.0433 66° East 189 217 9,000  Level Chicago Center
Tue 06:16:03 PM 41.2000 -89.9789 67° East 188 216 9,000 -48 Level Chicago Center
Tue 06:17:05 PM 41.2247 -89.9014 67° East 189 217 8,900  Descending Chicago Center
Tue 06:18:07 PM 41.2456 -89.8394 66° East 185 213 9,000 48 Climbing Chicago Center
Tue 06:19:10 PM 41.2667 -89.7764 66° East 185 213 9,000  Level Chicago Center
Tue 06:20:12 PM 41.2867 -89.7136 67° East 185 213 9,000  Level Chicago Center
Tue 06:21:14 PM 41.3061 -89.6494 68° East 186 214 9,000  Level Chicago Center
Tue 06:22:16 PM 41.3256 -89.5856 68° East 185 213 9,000  Level Chicago Center
Tue 06:23:18 PM 41.3433 -89.5222 69° East 184 212 9,000  Level Chicago Center
Tue 06:24:20 PM 41.3672 -89.4472 67° East 183 211 9,000  Level Chicago Center
Tue 06:25:22 PM 41.3869 -89.3842 67° East 184 212 9,000  Level Chicago Center
Tue 06:26:24 PM 41.4064 -89.3250 66° East 178 205 9,000  Level Chicago Center
Tue 06:27:26 PM 41.4258 -89.2653 67° East 176 203 9,000  Level Chicago Center
Tue 06:28:28 PM 41.4464 -89.1931 69° East 184 212 9,000  Level Chicago Center
Tue 06:29:30 PM 41.4661 -89.1314 67° East 183 211 9,000  Level Chicago Center
Tue 06:30:33 PM 41.4861 -89.0678 67° East 186 214 9,000 -96 Level Chicago Center
Tue 06:31:35 PM 41.5036 -89.0028 70° East 186 214 8,800 -97 Descending Chicago Center
Tue 06:32:37 PM 41.5239 -88.9244 71° East 188 216 8,800 -290 Level Chicago Center
Tue 06:33:39 PM 41.5389 -88.8578 73° East 188 216 8,200 -387 Descending Chicago Center
Tue 06:34:41 PM 41.5583 -88.7978 67° East 179 206 8,000 -97 Descending Chicago Center
Tue 06:35:43 PM 41.5769 -88.7394 67° East 174 200 8,000  Level Chicago Center
Tue 06:36:45 PM 41.5947 -88.6817 68° East 169 194 8,000 -48 Level Chicago Center
Tue 06:37:47 PM 41.6144 -88.6108 70° East 169 194 7,900  Descending Chicago Center
Tue 06:38:49 PM 41.6181 -88.5489 86° East 169 194 8,000 48 Climbing Chicago Center
Tue 06:39:51 PM 41.6203 -88.4847 87° East 175 201 8,000  Level Chicago Center
Tue 06:40:53 PM 41.6400 -88.4303 64° Northeast 167 192 8,000  Level Chicago Center
Tue 06:41:56 PM 41.6681 -88.3828 52° Northeast 163 188 8,000 -192 Level Chicago Center
Tue 06:42:58 PM 41.6992 -88.3394 46° Northeast 163 188 7,600 -484 Descending Chicago Center
Tue 06:44:00 PM 41.7331 -88.2792 53° Northeast 169 194 7,000 -290 Descending Chicago Center
Tue 06:45:02 PM 41.7586 -88.2297 55° Northeast 165 190 7,000  Level Chicago Center
Tue 06:46:04 PM 41.7839 -88.1811 55° Northeast 160 184 7,000  Level Chicago Center
Tue 06:47:06 PM 41.8081 -88.1303 57° Northeast 162 186 7,000 -48 Level Chicago Center
Tue 06:48:08 PM 41.8333 -88.0828 54° Northeast 159 183 6,900  Descending Chicago Center
Tue 06:49:10 PM 41.8644 -88.0231 55° Northeast 162 186 7,000 61 Climbing Chicago Center
Tue 06:49:46 PM 41.8833 -88.0000 42° Northeast 160 184 7,000  Level Chicago TRACON
Tue 06:50:46 PM 41.8833 -87.9333 90° East 175 201 7,000  Level Chicago TRACON
Tue 06:51:46 PM 41.8833 -87.8667 90° East 174 200 7,000  Level Chicago TRACON
Tue 06:52:17 PM 41.8864 -87.8447 79° East 173 199 7,000 -387 Level Chicago Center
Tue 06:53:19 PM 41.8881 -87.7806 88° East 174 200 6,400 -726 Descending Chicago Center
Tue 06:54:21 PM 41.9111 -87.7328 57° Northeast 172 198 5,500 -1,113 Descending Chicago Center
Tue 06:55:23 PM 41.9544 -87.7578 337° Northwest 163 188 4,100 -1,258 Descending Chicago Center
Tue 06:56:25 PM 41.9678 -87.8036 291° West 146 168 2,900 -1,258 Descending Chicago Center
Tue 06:57:27 PM 41.9678 -87.8517 270° West 140 161 1,500 -968 Descending Chicago Center
Tue 06:58:29 PM 41.9714 -87.9067 275° West 135 155 900 -581 Descending Chicago Center

Login

Don't have an account? Register now (free) for customized features, flight alerts, and more!